sensor_id;sensor_type;location;lat;lon;timestamp;temperature;humidity
72786;DHT22;60902;53.876;10.674;2023-05-23T00:00:00;15.30;76.10
72786;DHT22;60902;53.876;10.674;2023-05-23T00:00:12;15.30;76.10
72786;DHT22;60902;53.876;10.674;2023-05-23T00:00:24;15.30;76.10
72786;DHT22;60902;53.876;10.674;2023-05-23T00:00:35;15.30;76.10
72786;DHT22;60902;53.876;10.674;2023-05-23T00:00:46;15.30;76.10
72786;DHT22;60902;53.876;10.674;2023-05-23T00:00:58;15.30;76.10
72786;DHT22;60902;53.876;10.674;2023-05-23T00:01:09;15.30;76.10
72786;DHT22;60902;53.876;10.674;2023-05-23T00:01:24;15.30;76.10
72786;DHT22;60902;53.876;10.674;2023-05-23T00:01:35;15.30;76.10
72786;DHT22;60902;53.876;10.674;2023-05-23T00:01:47;15.30;76.10
72786;DHT22;60902;53.876;10.674;2023-05-23T00:01:59;15.30;76.10
72786;DHT22;60902;53.876;10.674;2023-05-23T00:02:10;15.30;76.10
72786;DHT22;60902;53.876;10.674;2023-05-23T00:02:22;15.30;76.10
72786;DHT22;60902;53.876;10.674;2023-05-23T00:02:33;15.30;76.10
72786;DHT22;60902;53.876;10.674;2023-05-23T00:02:44;15.30;76.10
72786;DHT22;60902;53.876;10.674;2023-05-23T00:02:56;15.30;76.10
72786;DHT22;60902;53.876;10.674;2023-05-23T00:03:07;15.30;76.10
72786;DHT22;60902;53.876;10.674;2023-05-23T00:03:20;15.30;76.10
72786;DHT22;60902;53.876;10.674;2023-05-23T00:03:32;15.30;76.10
72786;DHT22;60902;53.876;10.674;2023-05-23T00:03:43;15.30;76.10
72786;DHT22;60902;53.876;10.674;2023-05-23T00:03:55;15.30;76.10
72786;DHT22;60902;53.876;10.674;2023-05-23T00:04:05;15.20;76.00
72786;DHT22;60902;53.876;10.674;2023-05-23T00:04:19;15.30;76.10
72786;DHT22;60902;53.876;10.674;2023-05-23T00:04:30;15.30;76.10
72786;DHT22;60902;53.876;10.674;2023-05-23T00:04:42;15.30;76.10
72786;DHT22;60902;53.876;10.674;2023-05-23T00:04:54;15.30;76.10
72786;DHT22;60902;53.876;10.674;2023-05-23T00:05:08;15.30;76.10
72786;DHT22;60902;53.876;10.674;2023-05-23T00:05:19;15.30;76.10
72786;DHT22;60902;53.876;10.674;2023-05-23T00:05:30;15.30;76.10
72786;DHT22;60902;53.876;10.674;2023-05-23T00:05:41;15.30;76.10
72786;DHT22;60902;53.876;10.674;2023-05-23T00:05:52;15.30;76.10
72786;DHT22;60902;53.876;10.674;2023-05-23T00:06:05;15.30;76.10
72786;DHT22;60902;53.876;10.674;2023-05-23T00:06:19;15.30;76.10
72786;DHT22;60902;53.876;10.674;2023-05-23T00:06:33;15.30;76.10
72786;DHT22;60902;53.876;10.674;2023-05-23T00:06:45;15.30;76.10
72786;DHT22;60902;53.876;10.674;2023-05-23T00:06:56;15.30;76.10
72786;DHT22;60902;53.876;10.674;2023-05-23T00:07:08;15.30;76.10
72786;DHT22;60902;53.876;10.674;2023-05-23T00:07:19;15.30;76.10
72786;DHT22;60902;53.876;10.674;2023-05-23T00:07:30;15.30;76.10
72786;DHT22;60902;53.876;10.674;2023-05-23T00:07:42;15.30;76.10
72786;DHT22;60902;53.876;10.674;2023-05-23T00:07:55;15.30;76.10
72786;DHT22;60902;53.876;10.674;2023-05-23T00:08:07;15.30;76.10
72786;DHT22;60902;53.876;10.674;2023-05-23T00:08:18;15.20;76.00
72786;DHT22;60902;53.876;10.674;2023-05-23T00:08:29;15.30;76.10
72786;DHT22;60902;53.876;10.674;2023-05-23T00:08:40;15.30;76.10
72786;DHT22;60902;53.876;10.674;2023-05-23T00:08:51;15.30;76.10
72786;DHT22;60902;53.876;10.674;2023-05-23T00:09:02;15.30;76.10
72786;DHT22;60902;53.876;10.674;2023-05-23T00:09:13;15.30;76.10
72786;DHT22;60902;53.876;10.674;2023-05-23T00:09:24;15.30;76.10
72786;DHT22;60902;53.876;10.674;2023-05-23T00:09:36;15.20;76.00
72786;DHT22;60902;53.876;10.674;2023-05-23T00:09:47;15.30;76.10
72786;DHT22;60902;53.876;10.674;2023-05-23T00:09:58;15.30;76.00
72786;DHT22;60902;53.876;10.674;2023-05-23T00:10:12;15.30;76.10
72786;DHT22;60902;53.876;10.674;2023-05-23T00:10:23;15.30;76.10
72786;DHT22;60902;53.876;10.674;2023-05-23T00:10:34;15.30;76.10
72786;DHT22;60902;53.876;10.674;2023-05-23T00:10:45;15.30;76.10
72786;DHT22;60902;53.876;10.674;2023-05-23T00:10:57;15.30;76.00
72786;DHT22;60902;53.876;10.674;2023-05-23T00:11:08;15.30;76.10
72786;DHT22;60902;53.876;10.674;2023-05-23T00:11:19;15.30;76.10
72786;DHT22;60902;53.876;10.674;2023-05-23T00:11:36;15.30;76.00
72786;DHT22;60902;53.876;10.674;2023-05-23T00:11:47;15.30;76.10
72786;DHT22;60902;53.876;10.674;2023-05-23T00:11:58;15.30;76.10
72786;DHT22;60902;53.876;10.674;2023-05-23T00:12:09;15.30;76.10
72786;DHT22;60902;53.876;10.674;2023-05-23T00:12:22;15.30;76.00
72786;DHT22;60902;53.876;10.674;2023-05-23T00:12:34;15.30;76.10
72786;DHT22;60902;53.876;10.674;2023-05-23T00:12:47;15.30;76.10
72786;DHT22;60902;53.876;10.674;2023-05-23T00:12:58;15.30;76.00
72786;DHT22;60902;53.876;10.674;2023-05-23T00:13:09;15.30;76.00
72786;DHT22;60902;53.876;10.674;2023-05-23T00:13:21;15.30;76.00
72786;DHT22;60902;53.876;10.674;2023-05-23T00:13:32;15.30;76.00
72786;DHT22;60902;53.876;10.674;2023-05-23T00:13:44;15.30;76.10
72786;DHT22;60902;53.876;10.674;2023-05-23T00:13:55;15.30;76.00
72786;DHT22;60902;53.876;10.674;2023-05-23T00:14:10;15.30;76.00
72786;DHT22;60902;53.876;10.674;2023-05-23T00:14:23;15.30;76.10
72786;DHT22;60902;53.876;10.674;2023-05-23T00:14:33;15.30;76.00
72786;DHT22;60902;53.876;10.674;2023-05-23T00:14:44;15.30;76.00
72786;DHT22;60902;53.876;10.674;2023-05-23T00:14:55;15.20;76.00
72786;DHT22;60902;53.876;10.674;2023-05-23T00:15:08;15.30;76.10
72786;DHT22;60902;53.876;10.674;2023-05-23T00:15:19;15.30;76.10
72786;DHT22;60902;53.876;10.674;2023-05-23T00:15:30;15.30;76.10
72786;DHT22;60902;53.876;10.674;2023-05-23T00:15:44;15.30;76.10
72786;DHT22;60902;53.876;10.674;2023-05-23T00:15:56;15.30;76.10
72786;DHT22;60902;53.876;10.674;2023-05-23T00:16:08;15.30;76.10
72786;DHT22;60902;53.876;10.674;2023-05-23T00:16:19;15.30;76.10
72786;DHT22;60902;53.876;10.674;2023-05-23T00:16:30;15.30;76.10
72786;DHT22;60902;53.876;10.674;2023-05-23T00:16:43;15.30;76.10
72786;DHT22;60902;53.876;10.674;2023-05-23T00:16:54;15.30;76.10
72786;DHT22;60902;53.876;10.674;2023-05-23T00:17:06;15.30;76.10
72786;DHT22;60902;53.876;10.674;2023-05-23T00:17:20;15.30;76.10
72786;DHT22;60902;53.876;10.674;2023-05-23T00:17:34;15.30;76.10
72786;DHT22;60902;53.876;10.674;2023-05-23T00:17:47;15.30;76.10
72786;DHT22;60902;53.876;10.674;2023-05-23T00:17:58;15.30;76.10
72786;DHT22;60902;53.876;10.674;2023-05-23T00:18:10;15.30;76.10
72786;DHT22;60902;53.876;10.674;2023-05-23T00:18:21;15.30;76.10
72786;DHT22;60902;53.876;10.674;2023-05-23T00:18:34;15.30;76.10
72786;DHT22;60902;53.876;10.674;2023-05-23T00:18:47;15.30;76.10
72786;DHT22;60902;53.876;10.674;2023-05-23T00:18:59;15.30;76.10
72786;DHT22;60902;53.876;10.674;2023-05-23T00:19:15;15.30;76.10
72786;DHT22;60902;53.876;10.674;2023-05-23T00:19:26;15.30;76.10
72786;DHT22;60902;53.876;10.674;2023-05-23T00:19:37;15.30;76.10
72786;DHT22;60902;53.876;10.674;2023-05-23T00:19:50;15.30;76.10
72786;DHT22;60902;53.876;10.674;2023-05-23T00:20:02;15.30;76.10
72786;DHT22;60902;53.876;10.674;2023-05-23T00:20:17;15.30;76.10
72786;DHT22;60902;53.876;10.674;2023-05-23T00:20:28;15.30;76.20
72786;DHT22;60902;53.876;10.674;2023-05-23T00:20:40;15.30;77.00
72786;DHT22;60902;53.876;10.674;2023-05-23T00:20:53;15.30;76.10
72786;DHT22;60902;53.876;10.674;2023-05-23T00:21:08;15.30;76.10
72786;DHT22;60902;53.876;10.674;2023-05-23T00:21:19;15.30;76.10
72786;DHT22;60902;53.876;10.674;2023-05-23T00:21:30;15.30;76.10
72786;DHT22;60902;53.876;10.674;2023-05-23T00:21:42;15.30;76.10
72786;DHT22;60902;53.876;10.674;2023-05-23T00:21:53;15.30;76.10
72786;DHT22;60902;53.876;10.674;2023-05-23T00:22:06;15.30;76.10
72786;DHT22;60902;53.876;10.674;2023-05-23T00:22:17;15.30;76.10
72786;DHT22;60902;53.876;10.674;2023-05-23T00:22:29;15.30;76.00
72786;DHT22;60902;53.876;10.674;2023-05-23T00:22:40;15.30;76.00
72786;DHT22;60902;53.876;10.674;2023-05-23T00:22:54;15.30;76.00
72786;DHT22;60902;53.876;10.674;2023-05-23T00:23:08;15.30;77.00
72786;DHT22;60902;53.876;10.674;2023-05-23T00:23:19;15.30;76.10
72786;DHT22;60902;53.876;10.674;2023-05-23T00:23:32;15.30;76.00
72786;DHT22;60902;53.876;10.674;2023-05-23T00:23:43;15.30;76.10
72786;DHT22;60902;53.876;10.674;2023-05-23T00:23:55;15.30;76.00
72786;DHT22;60902;53.876;10.674;2023-05-23T00:24:06;15.30;76.00
72786;DHT22;60902;53.876;10.674;2023-05-23T00:24:19;15.30;76.10
72786;DHT22;60902;53.876;10.674;2023-05-23T00:24:31;15.30;76.10
72786;DHT22;60902;53.876;10.674;2023-05-23T00:24:42;15.30;76.00
72786;DHT22;60902;53.876;10.674;2023-05-23T00:24:53;15.30;76.10
72786;DHT22;60902;53.876;10.674;2023-05-23T00:25:05;15.30;76.00
72786;DHT22;60902;53.876;10.674;2023-05-23T00:25:19;15.30;76.00
72786;DHT22;60902;53.876;10.674;2023-05-23T00:25:31;15.30;76.00
72786;DHT22;60902;53.876;10.674;2023-05-23T00:25:44;15.30;76.00
72786;DHT22;60902;53.876;10.674;2023-05-23T00:25:57;15.30;76.00
72786;DHT22;60902;53.876;10.674;2023-05-23T00:26:09;15.30;76.00
72786;DHT22;60902;53.876;10.674;2023-05-23T00:26:20;15.30;76.00
72786;DHT22;60902;53.876;10.674;2023-05-23T00:26:33;15.30;76.00
72786;DHT22;60902;53.876;10.674;2023-05-23T00:26:44;15.30;76.10
72786;DHT22;60902;53.876;10.674;2023-05-23T00:26:56;15.30;76.00
72786;DHT22;60902;53.876;10.674;2023-05-23T00:27:08;15.30;76.00
72786;DHT22;60902;53.876;10.674;2023-05-23T00:27:21;15.30;76.00
72786;DHT22;60902;53.876;10.674;2023-05-23T00:27:32;15.30;76.10
72786;DHT22;60902;53.876;10.674;2023-05-23T00:27:43;15.30;76.00
72786;DHT22;60902;53.876;10.674;2023-05-23T00:27:54;15.30;76.10
72786;DHT22;60902;53.876;10.674;2023-05-23T00:28:05;15.30;76.10
72786;DHT22;60902;53.876;10.674;2023-05-23T00:28:16;15.30;76.10
72786;DHT22;60902;53.876;10.674;2023-05-23T00:28:28;15.30;76.00
72786;DHT22;60902;53.876;10.674;2023-05-23T00:28:39;15.30;76.00
72786;DHT22;60902;53.876;10.674;2023-05-23T00:28:50;15.30;76.10
72786;DHT22;60902;53.876;10.674;2023-05-23T00:29:01;15.30;76.00
72786;DHT22;60902;53.876;10.674;2023-05-23T00:29:13;15.30;76.10
72786;DHT22;60902;53.876;10.674;2023-05-23T00:29:25;15.30;76.00
72786;DHT22;60902;53.876;10.674;2023-05-23T00:29:37;15.30;76.10
72786;DHT22;60902;53.876;10.674;2023-05-23T00:29:49;15.30;76.00
72786;DHT22;60902;53.876;10.674;2023-05-23T00:29:59;15.30;76.00
72786;DHT22;60902;53.876;10.674;2023-05-23T00:30:11;15.30;76.10
72786;DHT22;60902;53.876;10.674;2023-05-23T00:30:25;15.30;76.00
72786;DHT22;60902;53.876;10.674;2023-05-23T00:30:36;15.30;76.10
72786;DHT22;60902;53.876;10.674;2023-05-23T00:30:47;15.30;76.10
72786;DHT22;60902;53.876;10.674;2023-05-23T00:30:58;15.30;76.10
72786;DHT22;60902;53.876;10.674;2023-05-23T00:31:09;15.30;76.10
72786;DHT22;60902;53.876;10.674;2023-05-23T00:31:20;15.30;76.10
72786;DHT22;60902;53.876;10.674;2023-05-23T00:31:33;15.30;76.10
72786;DHT22;60902;53.876;10.674;2023-05-23T00:31:47;15.30;76.10
72786;DHT22;60902;53.876;10.674;2023-05-23T00:31:58;15.20;76.00
72786;DHT22;60902;53.876;10.674;2023-05-23T00:32:09;15.30;76.10
72786;DHT22;60902;53.876;10.674;2023-05-23T00:32:21;15.30;76.10
72786;DHT22;60902;53.876;10.674;2023-05-23T00:32:32;15.30;76.10
72786;DHT22;60902;53.876;10.674;2023-05-23T00:32:45;15.30;76.10
72786;DHT22;60902;53.876;10.674;2023-05-23T00:32:56;15.30;76.10
72786;DHT22;60902;53.876;10.674;2023-05-23T00:33:08;15.30;76.10
72786;DHT22;60902;53.876;10.674;2023-05-23T00:33:19;15.30;76.10
72786;DHT22;60902;53.876;10.674;2023-05-23T00:33:31;15.30;76.10
72786;DHT22;60902;53.876;10.674;2023-05-23T00:33:43;15.30;76.10
72786;DHT22;60902;53.876;10.674;2023-05-23T00:33:54;15.30;76.10
72786;DHT22;60902;53.876;10.674;2023-05-23T00:34:06;15.30;76.10
72786;DHT22;60902;53.876;10.674;2023-05-23T00:34:17;15.30;76.10
72786;DHT22;60902;53.876;10.674;2023-05-23T00:34:28;15.30;76.10
72786;DHT22;60902;53.876;10.674;2023-05-23T00:34:39;15.30;76.10
72786;DHT22;60902;53.876;10.674;2023-05-23T00:34:50;15.30;76.10
72786;DHT22;60902;53.876;10.674;2023-05-23T00:35:04;15.30;76.10
72786;DHT22;60902;53.876;10.674;2023-05-23T00:35:15;15.30;76.10
72786;DHT22;60902;53.876;10.674;2023-05-23T00:35:27;15.30;76.10
72786;DHT22;60902;53.876;10.674;2023-05-23T00:35:38;15.30;76.10
72786;DHT22;60902;53.876;10.674;2023-05-23T00:35:48;15.30;76.10
72786;DHT22;60902;53.876;10.674;2023-05-23T00:36:01;15.30;76.10
72786;DHT22;60902;53.876;10.674;2023-05-23T00:36:12;15.30;76.10
72786;DHT22;60902;53.876;10.674;2023-05-23T00:36:23;15.30;76.10
72786;DHT22;60902;53.876;10.674;2023-05-23T00:36:34;15.30;76.10
72786;DHT22;60902;53.876;10.674;2023-05-23T00:36:47;15.30;76.10
72786;DHT22;60902;53.876;10.674;2023-05-23T00:36:59;15.30;76.10
72786;DHT22;60902;53.876;10.674;2023-05-23T00:37:11;15.30;76.10
72786;DHT22;60902;53.876;10.674;2023-05-23T00:37:27;15.30;76.10
72786;DHT22;60902;53.876;10.674;2023-05-23T00:37:38;15.30;76.10
72786;DHT22;60902;53.876;10.674;2023-05-23T00:37:50;15.30;76.10
72786;DHT22;60902;53.876;10.674;2023-05-23T00:38:01;15.30;76.10
72786;DHT22;60902;53.876;10.674;2023-05-23T00:38:12;15.30;76.10
72786;DHT22;60902;53.876;10.674;2023-05-23T00:38:24;15.30;76.10
72786;DHT22;60902;53.876;10.674;2023-05-23T00:38:36;15.30;76.10
72786;DHT22;60902;53.876;10.674;2023-05-23T00:38:49;15.30;76.10
72786;DHT22;60902;53.876;10.674;2023-05-23T00:39:00;15.30;76.10
72786;DHT22;60902;53.876;10.674;2023-05-23T00:39:20;15.30;77.00
72786;DHT22;60902;53.876;10.674;2023-05-23T00:39:31;15.30;76.10
72786;DHT22;60902;53.876;10.674;2023-05-23T00:39:42;15.30;76.10
72786;DHT22;60902;53.876;10.674;2023-05-23T00:39:53;15.30;76.00
72786;DHT22;60902;53.876;10.674;2023-05-23T00:40:05;15.30;76.10
72786;DHT22;60902;53.876;10.674;2023-05-23T00:40:18;15.30;76.10
72786;DHT22;60902;53.876;10.674;2023-05-23T00:40:29;15.30;76.10
72786;DHT22;60902;53.876;10.674;2023-05-23T00:40:41;15.30;76.10
72786;DHT22;60902;53.876;10.674;2023-05-23T00:40:52;15.30;76.10
72786;DHT22;60902;53.876;10.674;2023-05-23T00:41:06;15.30;76.10
72786;DHT22;60902;53.876;10.674;2023-05-23T00:41:17;15.30;76.10
72786;DHT22;60902;53.876;10.674;2023-05-23T00:41:29;15.30;76.10
72786;DHT22;60902;53.876;10.674;2023-05-23T00:41:40;15.30;76.10
72786;DHT22;60902;53.876;10.674;2023-05-23T00:41:53;15.30;76.10
72786;DHT22;60902;53.876;10.674;2023-05-23T00:42:06;15.30;76.10
72786;DHT22;60902;53.876;10.674;2023-05-23T00:42:18;15.30;76.20
72786;DHT22;60902;53.876;10.674;2023-05-23T00:42:29;15.30;76.10
72786;DHT22;60902;53.876;10.674;2023-05-23T00:42:42;15.30;76.10
72786;DHT22;60902;53.876;10.674;2023-05-23T00:42:53;15.30;76.10
72786;DHT22;60902;53.876;10.674;2023-05-23T00:43:04;15.30;76.10
72786;DHT22;60902;53.876;10.674;2023-05-23T00:43:15;15.30;76.10
72786;DHT22;60902;53.876;10.674;2023-05-23T00:43:26;15.30;76.10
72786;DHT22;60902;53.876;10.674;2023-05-23T00:43:37;15.30;76.10
72786;DHT22;60902;53.876;10.674;2023-05-23T00:43:50;15.30;76.10
72786;DHT22;60902;53.876;10.674;2023-05-23T00:44:00;15.30;76.10
72786;DHT22;60902;53.876;10.674;2023-05-23T00:44:13;15.30;76.10
72786;DHT22;60902;53.876;10.674;2023-05-23T00:44:24;15.30;76.10
72786;DHT22;60902;53.876;10.674;2023-05-23T00:44:35;15.30;76.10
72786;DHT22;60902;53.876;10.674;2023-05-23T00:44:51;15.30;76.10
72786;DHT22;60902;53.876;10.674;2023-05-23T00:45:02;15.30;76.10
72786;DHT22;60902;53.876;10.674;2023-05-23T00:45:13;15.30;76.10
72786;DHT22;60902;53.876;10.674;2023-05-23T00:45:26;15.30;76.20
72786;DHT22;60902;53.876;10.674;2023-05-23T00:45:37;15.30;76.20
72786;DHT22;60902;53.876;10.674;2023-05-23T00:45:48;15.30;76.20
72786;DHT22;60902;53.876;10.674;2023-05-23T00:45:59;15.30;76.20
72786;DHT22;60902;53.876;10.674;2023-05-23T00:46:10;15.30;76.20
72786;DHT22;60902;53.876;10.674;2023-05-23T00:46:21;15.30;76.20
72786;DHT22;60902;53.876;10.674;2023-05-23T00:46:32;15.30;76.20
72786;DHT22;60902;53.876;10.674;2023-05-23T00:46:44;15.30;76.20
72786;DHT22;60902;53.876;10.674;2023-05-23T00:46:58;15.30;76.20
72786;DHT22;60902;53.876;10.674;2023-05-23T00:47:09;15.30;76.30
72786;DHT22;60902;53.876;10.674;2023-05-23T00:47:23;15.30;76.20
72786;DHT22;60902;53.876;10.674;2023-05-23T00:47:34;15.30;76.20
72786;DHT22;60902;53.876;10.674;2023-05-23T00:47:46;15.30;76.20
72786;DHT22;60902;53.876;10.674;2023-05-23T00:47:58;15.30;76.20
72786;DHT22;60902;53.876;10.674;2023-05-23T00:48:09;15.30;76.20
72786;DHT22;60902;53.876;10.674;2023-05-23T00:48:33;15.30;76.20
72786;DHT22;60902;53.876;10.674;2023-05-23T00:48:44;15.30;76.30
72786;DHT22;60902;53.876;10.674;2023-05-23T00:48:55;15.30;76.30
72786;DHT22;60902;53.876;10.674;2023-05-23T00:49:06;15.30;76.20
72786;DHT22;60902;53.876;10.674;2023-05-23T00:49:26;15.30;76.20
72786;DHT22;60902;53.876;10.674;2023-05-23T00:49:37;15.30;76.30
72786;DHT22;60902;53.876;10.674;2023-05-23T00:49:49;15.30;76.30
72786;DHT22;60902;53.876;10.674;2023-05-23T00:50:01;15.30;76.30
72786;DHT22;60902;53.876;10.674;2023-05-23T00:50:13;15.30;76.30
72786;DHT22;60902;53.876;10.674;2023-05-23T00:50:25;15.30;76.30
72786;DHT22;60902;53.876;10.674;2023-05-23T00:50:39;15.30;76.30
72786;DHT22;60902;53.876;10.674;2023-05-23T00:50:53;15.30;76.30
72786;DHT22;60902;53.876;10.674;2023-05-23T00:51:05;15.30;76.30
72786;DHT22;60902;53.876;10.674;2023-05-23T00:51:16;15.30;76.30
72786;DHT22;60902;53.876;10.674;2023-05-23T00:51:28;15.30;76.30
72786;DHT22;60902;53.876;10.674;2023-05-23T00:51:39;15.30;76.30
72786;DHT22;60902;53.876;10.674;2023-05-23T00:51:52;15.30;76.30
72786;DHT22;60902;53.876;10.674;2023-05-23T00:52:04;15.30;76.30
72786;DHT22;60902;53.876;10.674;2023-05-23T00:52:15;15.30;76.40
72786;DHT22;60902;53.876;10.674;2023-05-23T00:52:27;15.30;76.30
72786;DHT22;60902;53.876;10.674;2023-05-23T00:52:38;15.30;76.30
72786;DHT22;60902;53.876;10.674;2023-05-23T00:52:52;15.30;76.30
72786;DHT22;60902;53.876;10.674;2023-05-23T00:53:07;15.30;76.30
72786;DHT22;60902;53.876;10.674;2023-05-23T00:53:18;15.30;76.30
72786;DHT22;60902;53.876;10.674;2023-05-23T00:53:28;15.30;76.30
72786;DHT22;60902;53.876;10.674;2023-05-23T00:53:40;15.30;76.30
72786;DHT22;60902;53.876;10.674;2023-05-23T00:53:51;15.30;76.40
72786;DHT22;60902;53.876;10.674;2023-05-23T00:54:12;15.30;76.30
72786;DHT22;60902;53.876;10.674;2023-05-23T00:54:25;15.30;76.30
72786;DHT22;60902;53.876;10.674;2023-05-23T00:54:38;15.30;76.40
72786;DHT22;60902;53.876;10.674;2023-05-23T00:54:49;15.30;76.30
72786;DHT22;60902;53.876;10.674;2023-05-23T00:55:00;15.30;76.30
72786;DHT22;60902;53.876;10.674;2023-05-23T00:55:12;15.30;76.30
72786;DHT22;60902;53.876;10.674;2023-05-23T00:55:24;15.30;76.30
72786;DHT22;60902;53.876;10.674;2023-05-23T00:55:35;15.30;76.30
72786;DHT22;60902;53.876;10.674;2023-05-23T00:55:46;15.30;76.40
72786;DHT22;60902;53.876;10.674;2023-05-23T00:55:59;15.30;76.30
72786;DHT22;60902;53.876;10.674;2023-05-23T00:56:10;15.30;77.10
72786;DHT22;60902;53.876;10.674;2023-05-23T00:56:22;15.30;76.30
72786;DHT22;60902;53.876;10.674;2023-05-23T00:56:32;15.30;76.40
72786;DHT22;60902;53.876;10.674;2023-05-23T00:56:44;15.30;76.40
72786;DHT22;60902;53.876;10.674;2023-05-23T00:56:56;15.30;77.30
72786;DHT22;60902;53.876;10.674;2023-05-23T00:57:08;15.30;76.40
72786;DHT22;60902;53.876;10.674;2023-05-23T00:57:19;15.30;76.40
72786;DHT22;60902;53.876;10.674;2023-05-23T00:57:32;15.30;76.30
72786;DHT22;60902;53.876;10.674;2023-05-23T00:57:44;15.30;76.30
72786;DHT22;60902;53.876;10.674;2023-05-23T00:57:59;15.30;76.30
72786;DHT22;60902;53.876;10.674;2023-05-23T00:58:10;15.30;76.30
72786;DHT22;60902;53.876;10.674;2023-05-23T00:58:22;15.30;76.30
72786;DHT22;60902;53.876;10.674;2023-05-23T00:58:33;15.40;76.40
72786;DHT22;60902;53.876;10.674;2023-05-23T00:58:44;15.30;76.30
72786;DHT22;60902;53.876;10.674;2023-05-23T00:58:55;15.30;76.30
72786;DHT22;60902;53.876;10.674;2023-05-23T00:59:08;15.30;76.30
72786;DHT22;60902;53.876;10.674;2023-05-23T00:59:19;15.30;76.30
72786;DHT22;60902;53.876;10.674;2023-05-23T00:59:31;15.30;76.30
72786;DHT22;60902;53.876;10.674;2023-05-23T00:59:44;15.30;76.30
72786;DHT22;60902;53.876;10.674;2023-05-23T00:59:56;15.30;76.30
72786;DHT22;60902;53.876;10.674;2023-05-23T01:00:08;15.30;76.30
72786;DHT22;60902;53.876;10.674;2023-05-23T01:00:19;15.30;76.40
72786;DHT22;60902;53.876;10.674;2023-05-23T01:00:33;15.30;76.30
72786;DHT22;60902;53.876;10.674;2023-05-23T01:00:45;15.30;76.40
72786;DHT22;60902;53.876;10.674;2023-05-23T01:01:00;15.30;76.40
72786;DHT22;60902;53.876;10.674;2023-05-23T01:01:14;15.30;76.40
72786;DHT22;60902;53.876;10.674;2023-05-23T01:01:27;15.30;76.40
72786;DHT22;60902;53.876;10.674;2023-05-23T01:01:41;15.30;76.40
72786;DHT22;60902;53.876;10.674;2023-05-23T01:01:56;15.30;76.40
72786;DHT22;60902;53.876;10.674;2023-05-23T01:02:09;15.30;76.40
72786;DHT22;60902;53.876;10.674;2023-05-23T01:02:22;15.30;76.40
72786;DHT22;60902;53.876;10.674;2023-05-23T01:02:34;15.30;76.40
72786;DHT22;60902;53.876;10.674;2023-05-23T01:02:46;15.30;76.40
72786;DHT22;60902;53.876;10.674;2023-05-23T01:03:00;15.30;76.40
72786;DHT22;60902;53.876;10.674;2023-05-23T01:03:11;15.30;77.30
72786;DHT22;60902;53.876;10.674;2023-05-23T01:03:27;15.30;76.40
72786;DHT22;60902;53.876;10.674;2023-05-23T01:03:39;15.30;76.40
72786;DHT22;60902;53.876;10.674;2023-05-23T01:03:55;15.30;76.40
72786;DHT22;60902;53.876;10.674;2023-05-23T01:04:07;15.30;76.40
72786;DHT22;60902;53.876;10.674;2023-05-23T01:04:18;15.30;76.40
72786;DHT22;60902;53.876;10.674;2023-05-23T01:04:30;15.30;76.40
72786;DHT22;60902;53.876;10.674;2023-05-23T01:04:47;15.30;76.40
72786;DHT22;60902;53.876;10.674;2023-05-23T01:05:04;15.30;76.40
72786;DHT22;60902;53.876;10.674;2023-05-23T01:05:17;15.30;76.40
72786;DHT22;60902;53.876;10.674;2023-05-23T01:05:28;15.30;76.40
72786;DHT22;60902;53.876;10.674;2023-05-23T01:05:39;15.30;76.40
72786;DHT22;60902;53.876;10.674;2023-05-23T01:05:51;15.30;76.40
72786;DHT22;60902;53.876;10.674;2023-05-23T01:06:02;15.30;76.40
72786;DHT22;60902;53.876;10.674;2023-05-23T01:06:13;15.30;76.40
72786;DHT22;60902;53.876;10.674;2023-05-23T01:06:24;15.30;76.40
72786;DHT22;60902;53.876;10.674;2023-05-23T01:06:35;15.30;76.40
72786;DHT22;60902;53.876;10.674;2023-05-23T01:06:50;15.30;76.40
72786;DHT22;60902;53.876;10.674;2023-05-23T01:07:02;15.30;76.40
72786;DHT22;60902;53.876;10.674;2023-05-23T01:07:13;15.30;76.40
72786;DHT22;60902;53.876;10.674;2023-05-23T01:07:24;15.30;76.40
72786;DHT22;60902;53.876;10.674;2023-05-23T01:07:35;15.30;76.40
72786;DHT22;60902;53.876;10.674;2023-05-23T01:07:47;15.30;76.40
72786;DHT22;60902;53.876;10.674;2023-05-23T01:07:58;15.30;76.40
72786;DHT22;60902;53.876;10.674;2023-05-23T01:08:09;15.30;76.50
72786;DHT22;60902;53.876;10.674;2023-05-23T01:08:20;15.30;76.40
72786;DHT22;60902;53.876;10.674;2023-05-23T01:08:32;15.30;76.50
72786;DHT22;60902;53.876;10.674;2023-05-23T01:08:43;15.30;76.40
72786;DHT22;60902;53.876;10.674;2023-05-23T01:08:54;15.30;76.40
72786;DHT22;60902;53.876;10.674;2023-05-23T01:09:06;15.30;76.50
72786;DHT22;60902;53.876;10.674;2023-05-23T01:09:18;15.30;76.40
72786;DHT22;60902;53.876;10.674;2023-05-23T01:09:30;15.30;76.50
72786;DHT22;60902;53.876;10.674;2023-05-23T01:09:41;15.30;76.40
72786;DHT22;60902;53.876;10.674;2023-05-23T01:09:52;15.30;76.40
72786;DHT22;60902;53.876;10.674;2023-05-23T01:10:08;15.30;76.50
72786;DHT22;60902;53.876;10.674;2023-05-23T01:10:25;15.30;76.50
72786;DHT22;60902;53.876;10.674;2023-05-23T01:10:37;15.30;76.50
72786;DHT22;60902;53.876;10.674;2023-05-23T01:10:48;15.30;76.50
72786;DHT22;60902;53.876;10.674;2023-05-23T01:11:05;15.30;76.50
72786;DHT22;60902;53.876;10.674;2023-05-23T01:11:25;15.30;76.50
72786;DHT22;60902;53.876;10.674;2023-05-23T01:11:42;15.30;76.50
72786;DHT22;60902;53.876;10.674;2023-05-23T01:12:01;15.30;76.50
72786;DHT22;60902;53.876;10.674;2023-05-23T01:12:19;15.30;76.60
72786;DHT22;60902;53.876;10.674;2023-05-23T01:12:38;15.30;76.50
72786;DHT22;60902;53.876;10.674;2023-05-23T01:13:05;15.30;76.60
72786;DHT22;60902;53.876;10.674;2023-05-23T01:13:32;15.30;76.60
72786;DHT22;60902;53.876;10.674;2023-05-23T01:13:50;15.30;76.60
72786;DHT22;60902;53.876;10.674;2023-05-23T01:14:08;15.30;76.60
72786;DHT22;60902;53.876;10.674;2023-05-23T01:14:25;15.30;76.60
72786;DHT22;60902;53.876;10.674;2023-05-23T01:14:44;15.30;76.70
72786;DHT22;60902;53.876;10.674;2023-05-23T01:15:03;15.30;76.60
72786;DHT22;60902;53.876;10.674;2023-05-23T01:15:18;15.30;76.60
72786;DHT22;60902;53.876;10.674;2023-05-23T01:15:35;15.30;76.60
72786;DHT22;60902;53.876;10.674;2023-05-23T01:15:51;15.30;76.60
72786;DHT22;60902;53.876;10.674;2023-05-23T01:16:09;15.30;76.70
72786;DHT22;60902;53.876;10.674;2023-05-23T01:16:29;15.30;76.60
72786;DHT22;60902;53.876;10.674;2023-05-23T01:16:47;15.30;76.60
72786;DHT22;60902;53.876;10.674;2023-05-23T01:17:07;15.30;76.70